sensor_id;sensor_type;location;lat;lon;timestamp;pressure;altitude;pressure_sealevel;temperature;humidity
59682;BME280;45548;39.530;-9.118;2022-08-03T07:56:51;100825.47;;;18.70;100.00
59682;BME280;45548;39.530;-9.118;2022-08-03T07:59:16;100829.88;;;18.88;100.00
59682;BME280;45548;39.530;-9.118;2022-08-03T08:01:42;100825.34;;;19.06;100.00
59682;BME280;45548;39.530;-9.118;2022-08-03T08:04:07;100819.03;;;19.19;100.00
59682;BME280;45548;39.530;-9.118;2022-08-03T08:06:33;100809.47;;;19.30;100.00
59682;BME280;45548;39.530;-9.118;2022-08-03T08:08:58;100815.13;;;19.45;100.00
59682;BME280;45548;39.530;-9.118;2022-08-03T08:11:26;100813.75;;;19.54;100.00
59682;BME280;45548;39.530;-9.118;2022-08-03T08:13:52;100814.94;;;19.58;100.00
59682;BME280;45548;39.530;-9.118;2022-08-03T08:16:17;100818.06;;;19.67;100.00
59682;BME280;45548;39.530;-9.118;2022-08-03T08:18:42;100820.09;;;19.77;100.00
59682;BME280;45548;39.530;-9.118;2022-08-03T08:21:08;100819.19;;;19.83;100.00
59682;BME280;45548;39.530;-9.118;2022-08-03T08:23:34;100818.13;;;19.96;100.00
59682;BME280;45548;39.530;-9.118;2022-08-03T08:25:59;100820.41;;;20.04;100.00
59682;BME280;45548;39.530;-9.118;2022-08-03T08:28:25;100826.53;;;20.16;100.00
59682;BME280;45548;39.530;-9.118;2022-08-03T08:30:50;100827.31;;;20.28;99.04
59682;BME280;45548;39.530;-9.118;2022-08-03T08:33:16;100824.09;;;20.26;98.16
59682;BME280;45548;39.530;-9.118;2022-08-03T08:35:41;100833.41;;;20.29;97.75
59682;BME280;45548;39.530;-9.118;2022-08-03T08:38:07;100823.94;;;20.33;96.86
59682;BME280;45548;39.530;-9.118;2022-08-03T08:40:32;100826.94;;;20.36;96.88
59682;BME280;45548;39.530;-9.118;2022-08-03T08:42:58;100826.00;;;20.42;98.14
59682;BME280;45548;39.530;-9.118;2022-08-03T08:45:24;100825.84;;;20.61;96.24
59682;BME280;45548;39.530;-9.118;2022-08-03T08:47:50;100830.53;;;20.70;95.49
59682;BME280;45548;39.530;-9.118;2022-08-03T08:50:19;100827.16;;;20.75;94.63
59682;BME280;45548;39.530;-9.118;2022-08-03T08:52:46;100824.59;;;20.80;94.26
59682;BME280;45548;39.530;-9.118;2022-08-03T08:55:19;100830.66;;;20.92;93.90
59682;BME280;45548;39.530;-9.118;2022-08-03T08:57:54;100831.22;;;20.94;91.60
59682;BME280;45548;39.530;-9.118;2022-08-03T09:00:22;100833.31;;;20.92;92.63
59682;BME280;45548;39.530;-9.118;2022-08-03T09:02:47;100831.03;;;20.84;91.81
59682;BME280;45548;39.530;-9.118;2022-08-03T09:05:15;100834.59;;;20.73;91.73
59682;BME280;45548;39.530;-9.118;2022-08-03T09:07:42;100828.00;;;20.64;93.68
59682;BME280;45548;39.530;-9.118;2022-08-03T09:10:09;100831.75;;;20.51;92.94
59682;BME280;45548;39.530;-9.118;2022-08-03T09:12:42;100821.00;;;20.58;93.99
59682;BME280;45548;39.530;-9.118;2022-08-03T09:15:28;100833.56;;;20.62;94.54
59682;BME280;45548;39.530;-9.118;2022-08-03T09:17:59;100835.38;;;20.74;92.77
59682;BME280;45548;39.530;-9.118;2022-08-03T09:20:27;100830.28;;;20.72;91.63
59682;BME280;45548;39.530;-9.118;2022-08-03T09:23:01;100832.59;;;20.80;92.19
59682;BME280;45548;39.530;-9.118;2022-08-03T09:25:32;100837.41;;;20.83;91.27
59682;BME280;45548;39.530;-9.118;2022-08-03T09:28:17;100844.44;;;20.89;91.44
59682;BME280;45548;39.530;-9.118;2022-08-03T09:30:57;100853.69;;;20.87;91.87
59682;BME280;45548;39.530;-9.118;2022-08-03T09:33:23;100857.16;;;20.87;91.60
59682;BME280;45548;39.530;-9.118;2022-08-03T09:35:48;100854.56;;;20.92;89.98
59682;BME280;45548;39.530;-9.118;2022-08-03T09:38:15;100863.94;;;20.95;90.63
59682;BME280;45548;39.530;-9.118;2022-08-03T09:40:42;100864.06;;;20.88;90.16
59682;BME280;45548;39.530;-9.118;2022-08-03T09:43:08;100860.31;;;20.72;90.74
59682;BME280;45548;39.530;-9.118;2022-08-03T09:45:35;100860.09;;;20.74;91.12
59682;BME280;45548;39.530;-9.118;2022-08-03T09:48:28;100862.63;;;20.81;90.27
59682;BME280;45548;39.530;-9.118;2022-08-03T09:50:55;100865.84;;;20.83;90.92
59682;BME280;45548;39.530;-9.118;2022-08-03T09:53:21;100865.44;;;20.91;90.43
59682;BME280;45548;39.530;-9.118;2022-08-03T09:56:00;100864.63;;;20.90;89.96
59682;BME280;45548;39.530;-9.118;2022-08-03T09:58:28;100862.50;;;21.04;89.06
59682;BME280;45548;39.530;-9.118;2022-08-03T10:00:59;100859.13;;;21.09;89.17
59682;BME280;45548;39.530;-9.118;2022-08-03T10:03:31;100854.13;;;21.12;88.72
59682;BME280;45548;39.530;-9.118;2022-08-03T10:05:57;100865.75;;;21.23;88.99
59682;BME280;45548;39.530;-9.118;2022-08-03T10:08:23;100865.66;;;21.18;88.19
59682;BME280;45548;39.530;-9.118;2022-08-03T10:10:50;100868.16;;;21.08;88.53
59682;BME280;45548;39.530;-9.118;2022-08-03T10:13:21;100872.47;;;20.97;88.95
59682;BME280;45548;39.530;-9.118;2022-08-03T10:15:47;100863.63;;;21.08;89.22
59682;BME280;45548;39.530;-9.118;2022-08-03T10:18:13;100866.56;;;21.40;87.51
59682;BME280;45548;39.530;-9.118;2022-08-03T10:20:48;100875.84;;;21.71;85.91
59682;BME280;45548;39.530;-9.118;2022-08-03T10:23:16;100870.22;;;22.06;85.25
59682;BME280;45548;39.530;-9.118;2022-08-03T10:25:43;100878.31;;;22.12;82.81
59682;BME280;45548;39.530;-9.118;2022-08-03T10:28:14;100873.47;;;22.09;82.76
59682;BME280;45548;39.530;-9.118;2022-08-03T10:30:43;100866.66;;;22.18;82.69
59682;BME280;45548;39.530;-9.118;2022-08-03T10:33:17;100875.34;;;22.30;81.83
59682;BME280;45548;39.530;-9.118;2022-08-03T10:35:44;100875.34;;;22.30;81.43
59682;BME280;45548;39.530;-9.118;2022-08-03T10:38:17;100873.91;;;22.44;81.31
59682;BME280;45548;39.530;-9.118;2022-08-03T10:40:44;100871.50;;;22.65;82.04
59682;BME280;45548;39.530;-9.118;2022-08-03T10:43:18;100878.59;;;22.81;78.42
59682;BME280;45548;39.530;-9.118;2022-08-03T10:45:45;100867.84;;;22.76;79.49
59682;BME280;45548;39.530;-9.118;2022-08-03T10:48:11;100873.25;;;22.81;78.35
59682;BME280;45548;39.530;-9.118;2022-08-03T10:50:38;100872.69;;;22.79;78.19
59682;BME280;45548;39.530;-9.118;2022-08-03T10:53:06;100881.25;;;22.81;80.02
59682;BME280;45548;39.530;-9.118;2022-08-03T11:01:03;100880.78;;;23.43;76.44
59682;BME280;45548;39.530;-9.118;2022-08-03T11:03:29;100874.41;;;23.44;76.28
59682;BME280;45548;39.530;-9.118;2022-08-03T11:06:14;100875.00;;;23.51;75.70
59682;BME280;45548;39.530;-9.118;2022-08-03T11:08:43;100884.34;;;23.54;76.48
59682;BME280;45548;39.530;-9.118;2022-08-03T11:13:59;100885.66;;;23.51;75.76
59682;BME280;45548;39.530;-9.118;2022-08-03T11:16:27;100892.38;;;23.59;75.83
59682;BME280;45548;39.530;-9.118;2022-08-03T11:19:09;100883.09;;;23.61;75.10
59682;BME280;45548;39.530;-9.118;2022-08-03T11:27:25;100889.66;;;23.54;76.34
59682;BME280;45548;39.530;-9.118;2022-08-03T11:30:39;100894.31;;;23.63;75.52
59682;BME280;45548;39.530;-9.118;2022-08-03T11:35:13;100887.19;;;23.74;73.31
59682;BME280;45548;39.530;-9.118;2022-08-03T11:40:51;100894.66;;;23.77;75.77
59682;BME280;45548;39.530;-9.118;2022-08-03T11:48:44;100892.38;;;23.96;74.44
59682;BME280;45548;39.530;-9.118;2022-08-03T11:54:01;100901.22;;;24.02;72.17
59682;BME280;45548;39.530;-9.118;2022-08-03T11:56:28;100902.56;;;23.99;73.90
59682;BME280;45548;39.530;-9.118;2022-08-03T11:58:56;100897.22;;;24.04;73.89
59682;BME280;45548;39.530;-9.118;2022-08-03T12:01:23;100892.38;;;23.96;72.48
59682;BME280;45548;39.530;-9.118;2022-08-03T12:03:49;100885.44;;;23.95;72.59
59682;BME280;45548;39.530;-9.118;2022-08-03T12:06:16;100883.06;;;24.04;73.14
59682;BME280;45548;39.530;-9.118;2022-08-03T12:08:43;100885.06;;;24.29;73.15
59682;BME280;45548;39.530;-9.118;2022-08-03T12:11:11;100883.81;;;24.41;71.52
59682;BME280;45548;39.530;-9.118;2022-08-03T12:13:45;100881.44;;;24.50;72.08
59682;BME280;45548;39.530;-9.118;2022-08-03T12:16:22;100878.28;;;24.63;70.84
59682;BME280;45548;39.530;-9.118;2022-08-03T12:18:56;100893.81;;;24.66;70.80
59682;BME280;45548;39.530;-9.118;2022-08-03T12:21:22;100891.16;;;24.76;70.62
59682;BME280;45548;39.530;-9.118;2022-08-03T12:23:49;100895.47;;;24.93;70.88
59682;BME280;45548;39.530;-9.118;2022-08-03T12:26:14;100883.66;;;24.84;68.40
59682;BME280;45548;39.530;-9.118;2022-08-03T12:28:47;100890.34;;;24.76;71.11
59682;BME280;45548;39.530;-9.118;2022-08-03T12:31:12;100881.53;;;24.91;70.72
59682;BME280;45548;39.530;-9.118;2022-08-03T12:34:02;100883.13;;;24.82;69.72
59682;BME280;45548;39.530;-9.118;2022-08-03T12:36:30;100881.47;;;24.60;70.41
59682;BME280;45548;39.530;-9.118;2022-08-03T12:39:01;100879.84;;;24.54;71.11
59682;BME280;45548;39.530;-9.118;2022-08-03T12:41:34;100877.25;;;24.74;71.08
59682;BME280;45548;39.530;-9.118;2022-08-03T12:44:01;100874.41;;;25.27;68.35
59682;BME280;45548;39.530;-9.118;2022-08-03T12:46:39;100875.44;;;25.62;66.93
59682;BME280;45548;39.530;-9.118;2022-08-03T12:49:09;100876.75;;;25.84;66.65
59682;BME280;45548;39.530;-9.118;2022-08-03T12:54:07;100874.66;;;26.51;64.91
59682;BME280;45548;39.530;-9.118;2022-08-03T12:56:33;100880.69;;;26.77;63.33
59682;BME280;45548;39.530;-9.118;2022-08-03T12:59:00;100874.06;;;27.04;63.58
59682;BME280;45548;39.530;-9.118;2022-08-03T13:01:25;100868.72;;;27.38;61.77
59682;BME280;45548;39.530;-9.118;2022-08-03T13:03:53;100877.72;;;27.81;59.36
59682;BME280;45548;39.530;-9.118;2022-08-03T13:06:22;100870.75;;;27.51;59.72
59682;BME280;45548;39.530;-9.118;2022-08-03T13:08:48;100875.88;;;27.18;61.10
59682;BME280;45548;39.530;-9.118;2022-08-03T13:11:21;100873.59;;;26.97;61.79
59682;BME280;45548;39.530;-9.118;2022-08-03T13:13:48;100868.09;;;27.17;61.23
59682;BME280;45548;39.530;-9.118;2022-08-03T13:16:14;100865.31;;;27.27;60.07
59682;BME280;45548;39.530;-9.118;2022-08-03T13:18:39;100864.94;;;27.10;62.35
59682;BME280;45548;39.530;-9.118;2022-08-03T13:21:05;100874.63;;;27.06;62.46
59682;BME280;45548;39.530;-9.118;2022-08-03T13:23:31;100869.25;;;27.01;61.01
59682;BME280;45548;39.530;-9.118;2022-08-03T13:25:56;100868.34;;;27.15;60.89
59682;BME280;45548;39.530;-9.118;2022-08-03T13:28:22;100868.16;;;27.07;61.06
59682;BME280;45548;39.530;-9.118;2022-08-03T13:30:48;100865.47;;;27.07;61.37
59682;BME280;45548;39.530;-9.118;2022-08-03T13:33:13;100870.63;;;26.98;61.38
59682;BME280;45548;39.530;-9.118;2022-08-03T13:35:38;100864.06;;;26.75;61.24
59682;BME280;45548;39.530;-9.118;2022-08-03T13:38:04;100858.97;;;26.74;61.75
59682;BME280;45548;39.530;-9.118;2022-08-03T13:40:29;100864.63;;;26.72;62.20
59682;BME280;45548;39.530;-9.118;2022-08-03T13:42:56;100859.53;;;26.71;61.88
59682;BME280;45548;39.530;-9.118;2022-08-03T13:45:22;100858.19;;;26.73;62.12
59682;BME280;45548;39.530;-9.118;2022-08-03T13:47:48;100858.00;;;26.54;62.19
59682;BME280;45548;39.530;-9.118;2022-08-03T13:50:14;100858.88;;;26.45;63.38
59682;BME280;45548;39.530;-9.118;2022-08-03T13:52:40;100854.09;;;26.26;63.19
59682;BME280;45548;39.530;-9.118;2022-08-03T13:55:06;100856.28;;;26.19;63.49
59682;BME280;45548;39.530;-9.118;2022-08-03T13:57:33;100853.16;;;26.02;65.17
59682;BME280;45548;39.530;-9.118;2022-08-03T14:00:00;100836.56;;;25.95;64.69
59682;BME280;45548;39.530;-9.118;2022-08-03T14:02:25;100840.41;;;26.28;64.09
59682;BME280;45548;39.530;-9.118;2022-08-03T14:04:51;100837.94;;;26.47;63.41
59682;BME280;45548;39.530;-9.118;2022-08-03T14:07:16;100839.44;;;26.68;62.15
59682;BME280;45548;39.530;-9.118;2022-08-03T14:09:42;100842.06;;;26.78;62.29
59682;BME280;45548;39.530;-9.118;2022-08-03T14:12:07;100846.16;;;27.10;60.89
59682;BME280;45548;39.530;-9.118;2022-08-03T14:14:33;100846.22;;;26.94;61.08
59682;BME280;45548;39.530;-9.118;2022-08-03T14:16:59;100843.75;;;26.64;62.26
59682;BME280;45548;39.530;-9.118;2022-08-03T14:19:24;100840.78;;;26.11;63.45
59682;BME280;45548;39.530;-9.118;2022-08-03T14:21:50;100833.88;;;25.95;64.32
59682;BME280;45548;39.530;-9.118;2022-08-03T14:24:15;100841.34;;;26.08;63.27
59682;BME280;45548;39.530;-9.118;2022-08-03T14:26:41;100845.97;;;25.77;64.31
59682;BME280;45548;39.530;-9.118;2022-08-03T14:29:06;100840.34;;;25.63;65.23
59682;BME280;45548;39.530;-9.118;2022-08-03T14:31:32;100830.16;;;25.60;65.36
59682;BME280;45548;39.530;-9.118;2022-08-03T14:33:57;100826.19;;;25.52;64.84
59682;BME280;45548;39.530;-9.118;2022-08-03T14:36:23;100832.09;;;25.39;64.95
59682;BME280;45548;39.530;-9.118;2022-08-03T14:38:49;100828.88;;;25.32;66.08
59682;BME280;45548;39.530;-9.118;2022-08-03T14:41:15;100827.00;;;25.38;65.99
59682;BME280;45548;39.530;-9.118;2022-08-03T14:43:40;100829.41;;;25.44;65.51
59682;BME280;45548;39.530;-9.118;2022-08-03T14:46:06;100833.44;;;25.42;65.71
59682;BME280;45548;39.530;-9.118;2022-08-03T14:48:31;100821.63;;;25.53;65.05
59682;BME280;45548;39.530;-9.118;2022-08-03T14:50:57;100825.09;;;25.64;65.03
59682;BME280;45548;39.530;-9.118;2022-08-03T14:53:23;100822.41;;;25.69;65.05
59682;BME280;45548;39.530;-9.118;2022-08-03T14:55:48;100826.97;;;25.73;64.31
59682;BME280;45548;39.530;-9.118;2022-08-03T14:58:15;100828.28;;;25.66;64.19
59682;BME280;45548;39.530;-9.118;2022-08-03T15:00:41;100817.88;;;25.59;64.75
59682;BME280;45548;39.530;-9.118;2022-08-03T15:03:06;100817.06;;;25.58;64.42
59682;BME280;45548;39.530;-9.118;2022-08-03T15:05:32;100818.94;;;25.73;64.24
59682;BME280;45548;39.530;-9.118;2022-08-03T15:07:57;100809.81;;;25.69;63.37
59682;BME280;45548;39.530;-9.118;2022-08-03T15:10:23;100814.66;;;25.57;64.37
59682;BME280;45548;39.530;-9.118;2022-08-03T15:12:48;100809.63;;;25.30;64.91
59682;BME280;45548;39.530;-9.118;2022-08-03T15:15:14;100804.53;;;25.18;65.25
59682;BME280;45548;39.530;-9.118;2022-08-03T15:17:39;100801.88;;;25.18;65.35
59682;BME280;45548;39.530;-9.118;2022-08-03T15:20:05;100798.13;;;25.29;65.31
59682;BME280;45548;39.530;-9.118;2022-08-03T15:22:33;100796.00;;;25.16;65.31
59682;BME280;45548;39.530;-9.118;2022-08-03T15:25:00;100795.97;;;24.96;65.73
59682;BME280;45548;39.530;-9.118;2022-08-03T15:27:25;100792.22;;;24.76;66.67
59682;BME280;45548;39.530;-9.118;2022-08-03T15:29:51;100797.53;;;24.61;67.53
59682;BME280;45548;39.530;-9.118;2022-08-03T15:32:16;100792.19;;;24.46;67.86
59682;BME280;45548;39.530;-9.118;2022-08-03T15:34:42;100794.84;;;24.46;68.07
59682;BME280;45548;39.530;-9.118;2022-08-03T15:37:10;100792.72;;;24.48;67.92
59682;BME280;45548;39.530;-9.118;2022-08-03T15:39:35;100794.84;;;24.51;68.42
59682;BME280;45548;39.530;-9.118;2022-08-03T15:42:01;100788.97;;;24.64;67.34
59682;BME280;45548;39.530;-9.118;2022-08-03T15:44:26;100789.00;;;24.69;67.42
59682;BME280;45548;39.530;-9.118;2022-08-03T15:46:52;100785.22;;;24.65;67.44
59682;BME280;45548;39.530;-9.118;2022-08-03T15:49:18;100786.56;;;24.58;67.55
59682;BME280;45548;39.530;-9.118;2022-08-03T15:51:45;100779.59;;;24.51;67.41
59682;BME280;45548;39.530;-9.118;2022-08-03T15:54:11;100780.38;;;24.37;68.04
59682;BME280;45548;39.530;-9.118;2022-08-03T15:56:36;100772.84;;;24.18;68.82
59682;BME280;45548;39.530;-9.118;2022-08-03T15:59:02;100773.09;;;24.22;68.56
59682;BME280;45548;39.530;-9.118;2022-08-03T16:01:28;100775.78;;;24.22;69.02
59682;BME280;45548;39.530;-9.118;2022-08-03T16:03:54;100767.50;;;24.18;69.11
59682;BME280;45548;39.530;-9.118;2022-08-03T16:06:20;100769.63;;;24.21;68.86
59682;BME280;45548;39.530;-9.118;2022-08-03T16:08:46;100772.00;;;24.18;69.15
59682;BME280;45548;39.530;-9.118;2022-08-03T16:11:12;100773.88;;;24.12;69.39
59682;BME280;45548;39.530;-9.118;2022-08-03T16:13:38;100772.75;;;23.93;69.93
59682;BME280;45548;39.530;-9.118;2022-08-03T16:16:03;100778.53;;;23.75;70.61
59682;BME280;45548;39.530;-9.118;2022-08-03T16:18:29;100780.00;;;23.55;71.26
59682;BME280;45548;39.530;-9.118;2022-08-03T16:20:58;100779.94;;;23.45;71.92
59682;BME280;45548;39.530;-9.118;2022-08-03T16:23:24;100766.72;;;23.23;72.43
59682;BME280;45548;39.530;-9.118;2022-08-03T16:25:51;100773.03;;;23.12;73.38
59682;BME280;45548;39.530;-9.118;2022-08-03T16:28:17;100781.84;;;23.12;72.76
59682;BME280;45548;39.530;-9.118;2022-08-03T16:30:44;100777.75;;;23.00;74.04
59682;BME280;45548;39.530;-9.118;2022-08-03T16:33:11;100776.31;;;22.87;74.40
59682;BME280;45548;39.530;-9.118;2022-08-03T16:35:37;100779.69;;;22.82;75.16
59682;BME280;45548;39.530;-9.118;2022-08-03T16:38:04;100779.34;;;22.74;74.71
59682;BME280;45548;39.530;-9.118;2022-08-03T16:40:30;100777.97;;;22.66;75.21
59682;BME280;45548;39.530;-9.118;2022-08-03T16:42:56;100770.38;;;22.53;75.72
59682;BME280;45548;39.530;-9.118;2022-08-03T16:45:22;100777.47;;;22.42;76.17
59682;BME280;45548;39.530;-9.118;2022-08-03T16:47:48;100776.34;;;22.38;76.18
59682;BME280;45548;39.530;-9.118;2022-08-03T16:50:14;100777.94;;;22.39;76.31
59682;BME280;45548;39.530;-9.118;2022-08-03T16:52:39;100777.34;;;22.32;76.83
59682;BME280;45548;39.530;-9.118;2022-08-03T16:55:05;100771.66;;;22.23;76.94
59682;BME280;45548;39.530;-9.118;2022-08-03T16:57:32;100777.91;;;22.12;77.96
59682;BME280;45548;39.530;-9.118;2022-08-03T16:59:57;100775.34;;;22.00;78.02
59682;BME280;45548;39.530;-9.118;2022-08-03T17:02:25;100777.03;;;21.85;78.72
59682;BME280;45548;39.530;-9.118;2022-08-03T17:04:51;100782.03;;;21.81;79.34
59682;BME280;45548;39.530;-9.118;2022-08-03T17:07:18;100785.88;;;21.90;78.66
59682;BME280;45548;39.530;-9.118;2022-08-03T17:09:44;100780.38;;;21.97;78.75
59682;BME280;45548;39.530;-9.118;2022-08-03T17:12:10;100775.81;;;22.14;78.24
59682;BME280;45548;39.530;-9.118;2022-08-03T17:14:35;100777.84;;;22.29;77.36
59682;BME280;45548;39.530;-9.118;2022-08-03T17:17:03;100778.66;;;22.29;76.54
59682;BME280;45548;39.530;-9.118;2022-08-03T17:19:31;100776.69;;;22.20;77.71
59682;BME280;45548;39.530;-9.118;2022-08-03T17:22:02;100775.13;;;22.24;77.15
59682;BME280;45548;39.530;-9.118;2022-08-03T17:24:36;100781.19;;;22.19;77.55
59682;BME280;45548;39.530;-9.118;2022-08-03T17:27:05;100770.53;;;21.97;78.27
59682;BME280;45548;39.530;-9.118;2022-08-03T17:29:34;100776.69;;;21.81;78.91
59682;BME280;45548;39.530;-9.118;2022-08-03T17:32:00;100764.94;;;21.55;79.97
59682;BME280;45548;39.530;-9.118;2022-08-03T17:34:30;100759.38;;;21.40;80.80
59682;BME280;45548;39.530;-9.118;2022-08-03T17:36:56;100754.88;;;21.40;81.53
59682;BME280;45548;39.530;-9.118;2022-08-03T17:39:23;100750.69;;;21.44;81.79
59682;BME280;45548;39.530;-9.118;2022-08-03T17:41:49;100757.94;;;21.49;82.13
59682;BME280;45548;39.530;-9.118;2022-08-03T17:44:15;100755.53;;;21.47;81.60
59682;BME280;45548;39.530;-9.118;2022-08-03T17:46:41;100753.03;;;21.41;81.96
59682;BME280;45548;39.530;-9.118;2022-08-03T17:49:06;100749.00;;;21.38;81.97
59682;BME280;45548;39.530;-9.118;2022-08-03T17:51:40;100754.22;;;21.33;82.58
59682;BME280;45548;39.530;-9.118;2022-08-03T17:57:10;100747.69;;;21.24;82.67
59682;BME280;45548;39.530;-9.118;2022-08-03T18:05:18;100761.91;;;21.30;83.27
59682;BME280;45548;39.530;-9.118;2022-08-03T18:07:45;100752.75;;;21.25;82.74
59682;BME280;45548;39.530;-9.118;2022-08-03T18:10:15;100754.97;;;21.29;83.35
59682;BME280;45548;39.530;-9.118;2022-08-03T18:12:49;100756.16;;;21.21;83.40
59682;BME280;45548;39.530;-9.118;2022-08-03T18:15:26;100757.56;;;21.07;83.64
59682;BME280;45548;39.530;-9.118;2022-08-03T18:17:53;100760.38;;;21.00;84.24
59682;BME280;45548;39.530;-9.118;2022-08-03T18:20:20;100755.22;;;20.93;84.14
59682;BME280;45548;39.530;-9.118;2022-08-03T18:22:47;100763.00;;;20.83;84.85
59682;BME280;45548;39.530;-9.118;2022-08-03T18:25:13;100761.63;;;20.81;85.00
59682;BME280;45548;39.530;-9.118;2022-08-03T18:27:40;100763.88;;;20.72;85.41
59682;BME280;45548;39.530;-9.118;2022-08-03T18:30:06;100764.81;;;20.66;86.62
59682;BME280;45548;39.530;-9.118;2022-08-03T18:32:33;100771.91;;;20.60;86.87
59682;BME280;45548;39.530;-9.118;2022-08-03T18:34:59;100771.13;;;20.60;87.04
59682;BME280;45548;39.530;-9.118;2022-08-03T18:37:28;100773.19;;;20.58;86.81
59682;BME280;45548;39.530;-9.118;2022-08-03T18:39:55;100774.13;;;20.52;86.94
59682;BME280;45548;39.530;-9.118;2022-08-03T18:42:21;100778.31;;;20.48;87.25
59682;BME280;45548;39.530;-9.118;2022-08-03T18:44:46;100771.41;;;20.47;87.21
59682;BME280;45548;39.530;-9.118;2022-08-03T18:53:23;100780.69;;;20.21;89.08
59682;BME280;45548;39.530;-9.118;2022-08-03T18:55:55;100777.03;;;20.10;90.09
59682;BME280;45548;39.530;-9.118;2022-08-03T18:58:48;100783.06;;;20.05;90.41
59682;BME280;45548;39.530;-9.118;2022-08-03T19:01:37;100773.13;;;20.01;90.97
59682;BME280;45548;39.530;-9.118;2022-08-03T19:06:57;100787.66;;;19.98;91.40
59682;BME280;45548;39.530;-9.118;2022-08-03T19:09:54;100785.34;;;20.02;91.03
59682;BME280;45548;39.530;-9.118;2022-08-03T19:12:27;100785.84;;;19.99;91.13
59682;BME280;45548;39.530;-9.118;2022-08-03T19:15:00;100791.59;;;19.96;91.20
59682;BME280;45548;39.530;-9.118;2022-08-03T19:17:27;100787.34;;;19.95;91.54
59682;BME280;45548;39.530;-9.118;2022-08-03T19:19:53;100787.81;;;19.92;91.34
59682;BME280;45548;39.530;-9.118;2022-08-03T19:22:18;100788.03;;;19.90;91.31
59682;BME280;45548;39.530;-9.118;2022-08-03T19:24:53;100788.84;;;19.90;91.41
59682;BME280;45548;39.530;-9.118;2022-08-03T19:27:23;100786.09;;;19.85;91.56
59682;BME280;45548;39.530;-9.118;2022-08-03T19:29:51;100793.47;;;19.83;91.74
59682;BME280;45548;39.530;-9.118;2022-08-03T19:32:17;100792.91;;;19.81;92.12
59682;BME280;45548;39.530;-9.118;2022-08-03T19:34:43;100789.88;;;19.78;91.91
59682;BME280;45548;39.530;-9.118;2022-08-03T19:37:11;100784.81;;;19.76;92.15
59682;BME280;45548;39.530;-9.118;2022-08-03T19:39:42;100790.38;;;19.75;92.59
59682;BME280;45548;39.530;-9.118;2022-08-03T19:42:11;100779.88;;;19.68;92.59
59682;BME280;45548;39.530;-9.118;2022-08-03T19:44:42;100789.44;;;19.69;92.74
59682;BME280;45548;39.530;-9.118;2022-08-03T19:47:13;100793.63;;;19.65;92.98
59682;BME280;45548;39.530;-9.118;2022-08-03T19:49:44;100788.31;;;19.65;93.49
59682;BME280;45548;39.530;-9.118;2022-08-03T19:52:10;100797.41;;;19.69;93.30
59682;BME280;45548;39.530;-9.118;2022-08-03T19:54:43;100793.63;;;19.65;93.27
59682;BME280;45548;39.530;-9.118;2022-08-03T19:57:16;100791.97;;;19.64;93.58
59682;BME280;45548;39.530;-9.118;2022-08-03T19:59:43;100797.50;;;19.62;93.72
59682;BME280;45548;39.530;-9.118;2022-08-03T20:02:09;100795.66;;;19.63;94.11
59682;BME280;45548;39.530;-9.118;2022-08-03T20:04:34;100791.41;;;19.62;93.57
59682;BME280;45548;39.530;-9.118;2022-08-03T20:07:01;100794.28;;;19.60;93.90
59682;BME280;45548;39.530;-9.118;2022-08-03T20:09:27;100793.09;;;19.56;94.20
59682;BME280;45548;39.530;-9.118;2022-08-03T20:11:54;100789.06;;;19.54;94.34
59682;BME280;45548;39.530;-9.118;2022-08-03T20:14:19;100792.19;;;19.51;94.67
59682;BME280;45548;39.530;-9.118;2022-08-03T20:16:46;100796.47;;;19.52;94.55
59682;BME280;45548;39.530;-9.118;2022-08-03T20:19:13;100800.38;;;19.49;94.70
59682;BME280;45548;39.530;-9.118;2022-08-03T20:21:41;100802.22;;;19.49;94.77
59682;BME280;45548;39.530;-9.118;2022-08-03T20:24:12;100806.72;;;19.48;95.07
59682;BME280;45548;39.530;-9.118;2022-08-03T20:26:43;100803.94;;;19.43;95.61
59682;BME280;45548;39.530;-9.118;2022-08-03T20:29:12;100814.91;;;19.47;95.75
59682;BME280;45548;39.530;-9.118;2022-08-03T20:31:41;100811.22;;;19.48;95.53
59682;BME280;45548;39.530;-9.118;2022-08-03T20:34:06;100814.91;;;19.47;95.78
59682;BME280;45548;39.530;-9.118;2022-08-03T20:36:32;100810.63;;;19.46;95.67
59682;BME280;45548;39.530;-9.118;2022-08-03T20:38:58;100819.41;;;19.46;95.58
59682;BME280;45548;39.530;-9.118;2022-08-03T20:41:23;100831.25;;;19.44;95.62
59682;BME280;45548;39.530;-9.118;2022-08-03T20:43:49;100820.31;;;19.40;95.57
59682;BME280;45548;39.530;-9.118;2022-08-03T20:46:16;100828.59;;;19.44;94.96
59682;BME280;45548;39.530;-9.118;2022-08-03T20:48:43;100832.09;;;19.44;94.60
59682;BME280;45548;39.530;-9.118;2022-08-03T20:51:09;100836.66;;;19.37;94.55
59682;BME280;45548;39.530;-9.118;2022-08-03T20:53:38;100839.56;;;19.35;94.67
59682;BME280;45548;39.530;-9.118;2022-08-03T20:56:05;100850.38;;;19.34;94.28
59682;BME280;45548;39.530;-9.118;2022-08-03T20:58:34;100855.56;;;19.29;94.33
59682;BME280;45548;39.530;-9.118;2022-08-03T21:01:00;100860.53;;;19.25;94.58
59682;BME280;45548;39.530;-9.118;2022-08-03T21:03:26;100871.69;;;19.27;94.81
59682;BME280;45548;39.530;-9.118;2022-08-03T21:05:52;100873.53;;;19.27;94.70
59682;BME280;45548;39.530;-9.118;2022-08-03T21:08:21;100866.06;;;19.24;95.06
59682;BME280;45548;39.530;-9.118;2022-08-03T21:10:51;100862.56;;;19.23;95.04
59682;BME280;45548;39.530;-9.118;2022-08-03T21:13:23;100862.13;;;19.26;95.04
59682;BME280;45548;39.530;-9.118;2022-08-03T21:15:54;100857.88;;;19.25;95.42
59682;BME280;45548;39.530;-9.118;2022-08-03T21:18:19;100863.50;;;19.17;95.91
59682;BME280;45548;39.530;-9.118;2022-08-03T21:20:47;100861.44;;;19.19;96.03
59682;BME280;45548;39.530;-9.118;2022-08-03T21:23:18;100868.91;;;19.22;96.13
59682;BME280;45548;39.530;-9.118;2022-08-03T21:25:48;100864.66;;;19.21;96.57
59682;BME280;45548;39.530;-9.118;2022-08-03T21:28:15;100866.25;;;19.22;95.86